sensor_id;sensor_type;location;lat;lon;timestamp;P1;durP1;ratioP1;P2;durP2;ratioP2
51179;SDS011;37243;49.814;8.652;2022-12-07T00:01:35;2.13;;;1.92;;
51179;SDS011;37243;49.814;8.652;2022-12-07T00:04:05;1.75;;;1.65;;
51179;SDS011;37243;49.814;8.652;2022-12-07T00:06:36;2.17;;;2.08;;
51179;SDS011;37243;49.814;8.652;2022-12-07T00:09:06;2.10;;;2.00;;
51179;SDS011;37243;49.814;8.652;2022-12-07T00:11:40;2.40;;;2.28;;
51179;SDS011;37243;49.814;8.652;2022-12-07T00:14:10;1.95;;;1.85;;
51179;SDS011;37243;49.814;8.652;2022-12-07T00:16:41;2.30;;;2.20;;
51179;SDS011;37243;49.814;8.652;2022-12-07T00:19:10;1.70;;;1.60;;
51179;SDS011;37243;49.814;8.652;2022-12-07T00:21:39;1.90;;;1.80;;
51179;SDS011;37243;49.814;8.652;2022-12-07T00:24:10;2.00;;;1.90;;
51179;SDS011;37243;49.814;8.652;2022-12-07T00:26:41;1.88;;;1.77;;
51179;SDS011;37243;49.814;8.652;2022-12-07T00:29:11;1.90;;;1.80;;
51179;SDS011;37243;49.814;8.652;2022-12-07T00:31:42;2.10;;;2.00;;
51179;SDS011;37243;49.814;8.652;2022-12-07T00:34:12;2.13;;;1.80;;
51179;SDS011;37243;49.814;8.652;2022-12-07T00:36:41;1.90;;;1.80;;
51179;SDS011;37243;49.814;8.652;2022-12-07T00:39:10;1.80;;;1.70;;
51179;SDS011;37243;49.814;8.652;2022-12-07T00:41:41;2.20;;;2.10;;
51179;SDS011;37243;49.814;8.652;2022-12-07T00:44:09;1.90;;;1.80;;
51179;SDS011;37243;49.814;8.652;2022-12-07T00:46:38;2.20;;;1.98;;
51179;SDS011;37243;49.814;8.652;2022-12-07T00:49:06;1.98;;;1.88;;
51179;SDS011;37243;49.814;8.652;2022-12-07T00:51:34;1.90;;;1.80;;
51179;SDS011;37243;49.814;8.652;2022-12-07T00:54:03;2.08;;;1.95;;
51179;SDS011;37243;49.814;8.652;2022-12-07T00:56:31;2.20;;;2.10;;
51179;SDS011;37243;49.814;8.652;2022-12-07T00:59:03;1.38;;;1.38;;
51179;SDS011;37243;49.814;8.652;2022-12-07T01:01:32;1.80;;;1.70;;
51179;SDS011;37243;49.814;8.652;2022-12-07T01:04:01;2.03;;;1.80;;
51179;SDS011;37243;49.814;8.652;2022-12-07T01:06:29;1.95;;;1.85;;
51179;SDS011;37243;49.814;8.652;2022-12-07T01:08:58;1.98;;;1.88;;
51179;SDS011;37243;49.814;8.652;2022-12-07T01:11:27;1.98;;;1.88;;
51179;SDS011;37243;49.814;8.652;2022-12-07T01:13:57;1.98;;;1.88;;
51179;SDS011;37243;49.814;8.652;2022-12-07T01:16:31;2.28;;;2.08;;
51179;SDS011;37243;49.814;8.652;2022-12-07T01:19:00;2.05;;;1.95;;
51179;SDS011;37243;49.814;8.652;2022-12-07T01:21:30;1.90;;;1.80;;
51179;SDS011;37243;49.814;8.652;2022-12-07T01:24:03;1.92;;;1.83;;
51179;SDS011;37243;49.814;8.652;2022-12-07T01:26:32;1.98;;;1.88;;
51179;SDS011;37243;49.814;8.652;2022-12-07T01:29:00;2.15;;;2.00;;
51179;SDS011;37243;49.814;8.652;2022-12-07T01:31:31;1.92;;;1.83;;
51179;SDS011;37243;49.814;8.652;2022-12-07T01:33:59;2.30;;;2.10;;
51179;SDS011;37243;49.814;8.652;2022-12-07T01:36:29;1.83;;;1.73;;
51179;SDS011;37243;49.814;8.652;2022-12-07T01:38:59;1.92;;;1.83;;
51179;SDS011;37243;49.814;8.652;2022-12-07T01:41:30;2.20;;;1.77;;
51179;SDS011;37243;49.814;8.652;2022-12-07T01:44:10;2.00;;;1.90;;
51179;SDS011;37243;49.814;8.652;2022-12-07T01:46:44;1.90;;;1.83;;
51179;SDS011;37243;49.814;8.652;2022-12-07T01:49:14;2.75;;;2.13;;
51179;SDS011;37243;49.814;8.652;2022-12-07T01:51:46;2.00;;;1.90;;
51179;SDS011;37243;49.814;8.652;2022-12-07T01:54:16;1.92;;;1.83;;
51179;SDS011;37243;49.814;8.652;2022-12-07T01:56:48;1.90;;;1.80;;
51179;SDS011;37243;49.814;8.652;2022-12-07T01:59:19;2.03;;;1.90;;
51179;SDS011;37243;49.814;8.652;2022-12-07T02:01:53;1.95;;;1.85;;
51179;SDS011;37243;49.814;8.652;2022-12-07T02:04:22;1.83;;;1.73;;
51179;SDS011;37243;49.814;8.652;2022-12-07T02:06:51;2.08;;;1.85;;
51179;SDS011;37243;49.814;8.652;2022-12-07T02:09:22;2.08;;;1.98;;
51179;SDS011;37243;49.814;8.652;2022-12-07T02:11:50;1.55;;;1.55;;
51179;SDS011;37243;49.814;8.652;2022-12-07T02:14:19;2.05;;;1.88;;
51179;SDS011;37243;49.814;8.652;2022-12-07T02:16:51;2.10;;;2.00;;
51179;SDS011;37243;49.814;8.652;2022-12-07T02:22:34;1.60;;;1.60;;
51179;SDS011;37243;49.814;8.652;2022-12-07T02:25:25;1.85;;;1.75;;
51179;SDS011;37243;49.814;8.652;2022-12-07T02:28:05;1.90;;;1.80;;
51179;SDS011;37243;49.814;8.652;2022-12-07T02:30:44;1.95;;;1.75;;
51179;SDS011;37243;49.814;8.652;2022-12-07T02:33:16;1.90;;;1.80;;
51179;SDS011;37243;49.814;8.652;2022-12-07T02:35:53;2.10;;;2.00;;
51179;SDS011;37243;49.814;8.652;2022-12-07T02:38:28;1.67;;;1.58;;
51179;SDS011;37243;49.814;8.652;2022-12-07T02:41:04;2.03;;;1.92;;
51179;SDS011;37243;49.814;8.652;2022-12-07T02:43:35;1.85;;;1.75;;
51179;SDS011;37243;49.814;8.652;2022-12-07T02:46:10;1.90;;;1.80;;
51179;SDS011;37243;49.814;8.652;2022-12-07T02:48:41;1.98;;;1.88;;
51179;SDS011;37243;49.814;8.652;2022-12-07T02:51:11;1.73;;;1.73;;
51179;SDS011;37243;49.814;8.652;2022-12-07T02:53:40;1.90;;;1.80;;
51179;SDS011;37243;49.814;8.652;2022-12-07T02:56:11;1.80;;;1.70;;
51179;SDS011;37243;49.814;8.652;2022-12-07T02:58:50;1.80;;;1.70;;
51179;SDS011;37243;49.814;8.652;2022-12-07T03:01:33;1.98;;;1.88;;
51179;SDS011;37243;49.814;8.652;2022-12-07T03:04:13;2.10;;;2.00;;
51179;SDS011;37243;49.814;8.652;2022-12-07T03:06:56;2.00;;;1.90;;
51179;SDS011;37243;49.814;8.652;2022-12-07T03:09:29;1.80;;;1.70;;
51179;SDS011;37243;49.814;8.652;2022-12-07T03:12:05;1.90;;;1.80;;
51179;SDS011;37243;49.814;8.652;2022-12-07T03:14:38;1.88;;;1.77;;
51179;SDS011;37243;49.814;8.652;2022-12-07T03:17:16;1.90;;;1.80;;
51179;SDS011;37243;49.814;8.652;2022-12-07T03:19:49;2.10;;;2.00;;
51179;SDS011;37243;49.814;8.652;2022-12-07T03:22:22;2.00;;;1.90;;
51179;SDS011;37243;49.814;8.652;2022-12-07T03:24:53;1.70;;;1.60;;
51179;SDS011;37243;49.814;8.652;2022-12-07T03:27:26;1.75;;;1.70;;
51179;SDS011;37243;49.814;8.652;2022-12-07T03:29:59;1.70;;;1.60;;
51179;SDS011;37243;49.814;8.652;2022-12-07T03:32:33;2.03;;;1.92;;
51179;SDS011;37243;49.814;8.652;2022-12-07T03:35:06;1.60;;;1.60;;
51179;SDS011;37243;49.814;8.652;2022-12-07T03:37:41;2.20;;;2.10;;
51179;SDS011;37243;49.814;8.652;2022-12-07T03:40:19;1.90;;;1.80;;
51179;SDS011;37243;49.814;8.652;2022-12-07T03:42:52;1.88;;;1.77;;
51179;SDS011;37243;49.814;8.652;2022-12-07T03:45:26;1.83;;;1.73;;
51179;SDS011;37243;49.814;8.652;2022-12-07T03:48:04;1.90;;;1.80;;
51179;SDS011;37243;49.814;8.652;2022-12-07T03:50:38;2.10;;;2.00;;
51179;SDS011;37243;49.814;8.652;2022-12-07T03:53:13;2.20;;;2.10;;
51179;SDS011;37243;49.814;8.652;2022-12-07T03:55:51;1.85;;;1.75;;
51179;SDS011;37243;49.814;8.652;2022-12-07T03:58:22;1.75;;;1.65;;
51179;SDS011;37243;49.814;8.652;2022-12-07T04:00:51;2.03;;;1.92;;
51179;SDS011;37243;49.814;8.652;2022-12-07T04:03:22;1.67;;;1.60;;
51179;SDS011;37243;49.814;8.652;2022-12-07T04:05:50;1.90;;;1.80;;
51179;SDS011;37243;49.814;8.652;2022-12-07T04:08:18;1.88;;;1.77;;
51179;SDS011;37243;49.814;8.652;2022-12-07T04:10:47;1.80;;;1.70;;
51179;SDS011;37243;49.814;8.652;2022-12-07T04:13:15;1.67;;;1.58;;
51179;SDS011;37243;49.814;8.652;2022-12-07T04:15:44;1.90;;;1.80;;
51179;SDS011;37243;49.814;8.652;2022-12-07T04:18:12;1.85;;;1.75;;
51179;SDS011;37243;49.814;8.652;2022-12-07T04:20:43;1.88;;;1.80;;
51179;SDS011;37243;49.814;8.652;2022-12-07T04:23:11;1.67;;;1.60;;
51179;SDS011;37243;49.814;8.652;2022-12-07T04:25:39;1.80;;;1.70;;
51179;SDS011;37243;49.814;8.652;2022-12-07T04:28:08;1.40;;;1.40;;
51179;SDS011;37243;49.814;8.652;2022-12-07T04:30:36;1.58;;;1.58;;
51179;SDS011;37243;49.814;8.652;2022-12-07T04:33:04;1.80;;;1.70;;
51179;SDS011;37243;49.814;8.652;2022-12-07T04:35:33;1.70;;;1.60;;
51179;SDS011;37243;49.814;8.652;2022-12-07T04:38:04;1.70;;;1.65;;
51179;SDS011;37243;49.814;8.652;2022-12-07T04:40:32;1.60;;;1.60;;
51179;SDS011;37243;49.814;8.652;2022-12-07T04:43:01;1.75;;;1.70;;
51179;SDS011;37243;49.814;8.652;2022-12-07T04:45:29;1.90;;;1.80;;
51179;SDS011;37243;49.814;8.652;2022-12-07T04:47:58;1.80;;;1.70;;
51179;SDS011;37243;49.814;8.652;2022-12-07T04:50:26;1.60;;;1.50;;
51179;SDS011;37243;49.814;8.652;2022-12-07T04:52:54;1.67;;;1.55;;
51179;SDS011;37243;49.814;8.652;2022-12-07T04:55:25;1.88;;;1.42;;
51179;SDS011;37243;49.814;8.652;2022-12-07T04:57:53;1.60;;;1.55;;
51179;SDS011;37243;49.814;8.652;2022-12-07T05:00:22;1.50;;;1.50;;
51179;SDS011;37243;49.814;8.652;2022-12-07T05:02:50;1.20;;;1.20;;
51179;SDS011;37243;49.814;8.652;2022-12-07T05:05:18;1.52;;;1.52;;
51179;SDS011;37243;49.814;8.652;2022-12-07T05:07:46;1.70;;;1.60;;
51179;SDS011;37243;49.814;8.652;2022-12-07T05:10:15;1.40;;;1.40;;
51179;SDS011;37243;49.814;8.652;2022-12-07T05:12:46;1.58;;;1.48;;
51179;SDS011;37243;49.814;8.652;2022-12-07T05:15:14;1.20;;;1.20;;
51179;SDS011;37243;49.814;8.652;2022-12-07T05:17:43;1.95;;;1.60;;
51179;SDS011;37243;49.814;8.652;2022-12-07T05:20:11;1.30;;;1.30;;
51179;SDS011;37243;49.814;8.652;2022-12-07T05:22:40;1.38;;;1.38;;
51179;SDS011;37243;49.814;8.652;2022-12-07T05:25:08;2.25;;;1.70;;
51179;SDS011;37243;49.814;8.652;2022-12-07T05:27:36;1.60;;;1.50;;
51179;SDS011;37243;49.814;8.652;2022-12-07T05:30:08;1.52;;;1.52;;
51179;SDS011;37243;49.814;8.652;2022-12-07T05:32:37;1.80;;;1.70;;
51179;SDS011;37243;49.814;8.652;2022-12-07T05:35:05;1.17;;;1.17;;
51179;SDS011;37243;49.814;8.652;2022-12-07T05:37:34;1.60;;;1.50;;
51179;SDS011;37243;49.814;8.652;2022-12-07T05:40:03;1.88;;;1.75;;
51179;SDS011;37243;49.814;8.652;2022-12-07T05:42:32;1.60;;;1.58;;
51179;SDS011;37243;49.814;8.652;2022-12-07T05:45:00;1.60;;;1.60;;
51179;SDS011;37243;49.814;8.652;2022-12-07T05:47:31;1.85;;;1.75;;
51179;SDS011;37243;49.814;8.652;2022-12-07T05:49:59;1.65;;;1.55;;
51179;SDS011;37243;49.814;8.652;2022-12-07T05:52:28;2.55;;;1.60;;
51179;SDS011;37243;49.814;8.652;2022-12-07T05:54:56;1.92;;;1.75;;
51179;SDS011;37243;49.814;8.652;2022-12-07T05:57:24;1.38;;;1.33;;
51179;SDS011;37243;49.814;8.652;2022-12-07T05:59:53;2.17;;;1.80;;
51179;SDS011;37243;49.814;8.652;2022-12-07T06:02:18;1.70;;;1.60;;
51179;SDS011;37243;49.814;8.652;2022-12-07T06:04:49;1.80;;;1.70;;
51179;SDS011;37243;49.814;8.652;2022-12-07T06:07:17;1.80;;;1.70;;
51179;SDS011;37243;49.814;8.652;2022-12-07T06:09:46;3.28;;;1.70;;
51179;SDS011;37243;49.814;8.652;2022-12-07T06:12:14;1.90;;;1.60;;
51179;SDS011;37243;49.814;8.652;2022-12-07T06:14:55;2.75;;;2.00;;
51179;SDS011;37243;49.814;8.652;2022-12-07T06:17:23;1.75;;;1.65;;
51179;SDS011;37243;49.814;8.652;2022-12-07T06:19:54;1.70;;;1.60;;
51179;SDS011;37243;49.814;8.652;2022-12-07T06:22:22;1.73;;;1.63;;
51179;SDS011;37243;49.814;8.652;2022-12-07T06:24:51;1.80;;;1.67;;
51179;SDS011;37243;49.814;8.652;2022-12-07T06:27:19;1.80;;;1.70;;
51179;SDS011;37243;49.814;8.652;2022-12-07T06:29:47;1.67;;;1.58;;
51179;SDS011;37243;49.814;8.652;2022-12-07T06:32:15;2.17;;;1.98;;
51179;SDS011;37243;49.814;8.652;2022-12-07T06:34:44;1.88;;;1.77;;
51179;SDS011;37243;49.814;8.652;2022-12-07T06:37:15;2.92;;;1.98;;
51179;SDS011;37243;49.814;8.652;2022-12-07T06:39:43;3.15;;;2.13;;
51179;SDS011;37243;49.814;8.652;2022-12-07T06:42:11;3.42;;;2.63;;
51179;SDS011;37243;49.814;8.652;2022-12-07T06:44:40;2.95;;;2.70;;
51179;SDS011;37243;49.814;8.652;2022-12-07T06:47:08;3.72;;;2.67;;
51179;SDS011;37243;49.814;8.652;2022-12-07T06:49:37;5.78;;;2.75;;
51179;SDS011;37243;49.814;8.652;2022-12-07T06:52:05;4.28;;;2.65;;
51179;SDS011;37243;49.814;8.652;2022-12-07T06:54:36;6.95;;;2.35;;
51179;SDS011;37243;49.814;8.652;2022-12-07T06:57:04;3.47;;;1.90;;
51179;SDS011;37243;49.814;8.652;2022-12-07T06:59:32;3.35;;;2.08;;
51179;SDS011;37243;49.814;8.652;2022-12-07T07:02:01;2.85;;;2.20;;
51179;SDS011;37243;49.814;8.652;2022-12-07T07:04:29;3.67;;;2.22;;
51179;SDS011;37243;49.814;8.652;2022-12-07T07:06:57;4.13;;;2.25;;
51179;SDS011;37243;49.814;8.652;2022-12-07T07:09:25;3.88;;;2.03;;
51179;SDS011;37243;49.814;8.652;2022-12-07T07:11:56;1.90;;;1.80;;
51179;SDS011;37243;49.814;8.652;2022-12-07T07:14:25;2.22;;;2.03;;
51179;SDS011;37243;49.814;8.652;2022-12-07T07:16:53;2.17;;;1.98;;
51179;SDS011;37243;49.814;8.652;2022-12-07T07:19:21;2.40;;;2.20;;
51179;SDS011;37243;49.814;8.652;2022-12-07T07:21:49;2.85;;;2.10;;
51179;SDS011;37243;49.814;8.652;2022-12-07T07:24:18;2.40;;;1.85;;
51179;SDS011;37243;49.814;8.652;2022-12-07T07:26:46;2.03;;;1.92;;
51179;SDS011;37243;49.814;8.652;2022-12-07T07:29:17;2.88;;;2.00;;
51179;SDS011;37243;49.814;8.652;2022-12-07T07:31:45;2.03;;;1.83;;
51179;SDS011;37243;49.814;8.652;2022-12-07T07:34:14;2.90;;;2.13;;
51179;SDS011;37243;49.814;8.652;2022-12-07T07:36:42;1.63;;;1.52;;
51179;SDS011;37243;49.814;8.652;2022-12-07T07:39:10;2.20;;;1.98;;
51179;SDS011;37243;49.814;8.652;2022-12-07T07:41:39;2.78;;;1.92;;
51179;SDS011;37243;49.814;8.652;2022-12-07T07:44:07;2.13;;;1.92;;
51179;SDS011;37243;49.814;8.652;2022-12-07T07:46:38;1.80;;;1.70;;
51179;SDS011;37243;49.814;8.652;2022-12-07T07:49:08;2.10;;;2.00;;
51179;SDS011;37243;49.814;8.652;2022-12-07T07:51:36;2.65;;;1.80;;
51179;SDS011;37243;49.814;8.652;2022-12-07T07:54:05;2.60;;;2.28;;
51179;SDS011;37243;49.814;8.652;2022-12-07T07:56:33;1.77;;;1.67;;
51179;SDS011;37243;49.814;8.652;2022-12-07T07:59:01;1.90;;;1.80;;
51179;SDS011;37243;49.814;8.652;2022-12-07T08:01:30;1.60;;;1.50;;
51179;SDS011;37243;49.814;8.652;2022-12-07T08:04:00;2.28;;;1.90;;
51179;SDS011;37243;49.814;8.652;2022-12-07T08:06:29;1.95;;;1.85;;
51179;SDS011;37243;49.814;8.652;2022-12-07T08:08:57;2.25;;;2.10;;
51179;SDS011;37243;49.814;8.652;2022-12-07T08:11:25;1.65;;;1.58;;
51179;SDS011;37243;49.814;8.652;2022-12-07T08:13:53;1.98;;;1.70;;
51179;SDS011;37243;49.814;8.652;2022-12-07T08:16:22;1.75;;;1.65;;
51179;SDS011;37243;49.814;8.652;2022-12-07T08:18:50;1.80;;;1.70;;
51179;SDS011;37243;49.814;8.652;2022-12-07T08:21:21;2.78;;;1.70;;
51179;SDS011;37243;49.814;8.652;2022-12-07T08:23:49;1.95;;;1.85;;
51179;SDS011;37243;49.814;8.652;2022-12-07T08:26:18;1.75;;;1.65;;
51179;SDS011;37243;49.814;8.652;2022-12-07T08:28:46;1.92;;;1.80;;
51179;SDS011;37243;49.814;8.652;2022-12-07T08:31:15;1.63;;;1.52;;
51179;SDS011;37243;49.814;8.652;2022-12-07T08:33:45;1.77;;;1.67;;
51179;SDS011;37243;49.814;8.652;2022-12-07T08:36:14;1.77;;;1.67;;
51179;SDS011;37243;49.814;8.652;2022-12-07T08:38:46;1.60;;;1.50;;
51179;SDS011;37243;49.814;8.652;2022-12-07T08:41:14;1.90;;;1.80;;
51179;SDS011;37243;49.814;8.652;2022-12-07T08:43:43;1.90;;;1.75;;
51179;SDS011;37243;49.814;8.652;2022-12-07T08:46:11;1.58;;;1.55;;
51179;SDS011;37243;49.814;8.652;2022-12-07T08:48:46;1.80;;;1.70;;
51179;SDS011;37243;49.814;8.652;2022-12-07T08:51:17;1.83;;;1.70;;
51179;SDS011;37243;49.814;8.652;2022-12-07T08:53:49;1.67;;;1.58;;
51179;SDS011;37243;49.814;8.652;2022-12-07T08:56:19;1.90;;;1.80;;
51179;SDS011;37243;49.814;8.652;2022-12-07T08:58:48;1.80;;;1.70;;
51179;SDS011;37243;49.814;8.652;2022-12-07T09:01:16;1.60;;;1.50;;
51179;SDS011;37243;49.814;8.652;2022-12-07T09:03:45;1.92;;;1.80;;
51179;SDS011;37243;49.814;8.652;2022-12-07T09:06:13;1.67;;;1.58;;
51179;SDS011;37243;49.814;8.652;2022-12-07T09:08:42;1.80;;;1.70;;
51179;SDS011;37243;49.814;8.652;2022-12-07T09:11:16;1.98;;;1.88;;
51179;SDS011;37243;49.814;8.652;2022-12-07T09:13:45;1.60;;;1.50;;
51179;SDS011;37243;49.814;8.652;2022-12-07T09:16:15;1.98;;;1.50;;
51179;SDS011;37243;49.814;8.652;2022-12-07T09:18:43;1.63;;;1.55;;
51179;SDS011;37243;49.814;8.652;2022-12-07T09:21:11;1.50;;;1.40;;
51179;SDS011;37243;49.814;8.652;2022-12-07T09:23:40;1.85;;;1.75;;
51179;SDS011;37243;49.814;8.652;2022-12-07T09:26:09;1.67;;;1.58;;
51179;SDS011;37243;49.814;8.652;2022-12-07T09:28:40;1.65;;;1.60;;
51179;SDS011;37243;49.814;8.652;2022-12-07T09:31:09;1.40;;;1.30;;
51179;SDS011;37243;49.814;8.652;2022-12-07T09:33:37;1.63;;;1.52;;
51179;SDS011;37243;49.814;8.652;2022-12-07T09:36:06;1.77;;;1.67;;
51179;SDS011;37243;49.814;8.652;2022-12-07T09:38:35;1.50;;;1.50;;
51179;SDS011;37243;49.814;8.652;2022-12-07T09:41:03;1.42;;;1.40;;
51179;SDS011;37243;49.814;8.652;2022-12-07T09:43:33;1.63;;;1.60;;
51179;SDS011;37243;49.814;8.652;2022-12-07T09:46:08;1.70;;;1.60;;
51179;SDS011;37243;49.814;8.652;2022-12-07T09:48:42;1.77;;;1.67;;
51179;SDS011;37243;49.814;8.652;2022-12-07T09:51:13;1.40;;;1.40;;
51179;SDS011;37243;49.814;8.652;2022-12-07T09:53:44;1.70;;;1.60;;
51179;SDS011;37243;49.814;8.652;2022-12-07T09:56:13;1.80;;;1.70;;
51179;SDS011;37243;49.814;8.652;2022-12-07T09:58:43;1.73;;;1.63;;
51179;SDS011;37243;49.814;8.652;2022-12-07T10:01:16;1.55;;;1.45;;
51179;SDS011;37243;49.814;8.652;2022-12-07T10:03:48;1.70;;;1.60;;
51179;SDS011;37243;49.814;8.652;2022-12-07T10:06:19;1.90;;;1.80;;
51179;SDS011;37243;49.814;8.652;2022-12-07T10:08:47;1.75;;;1.65;;
51179;SDS011;37243;49.814;8.652;2022-12-07T10:11:16;1.75;;;1.65;;
51179;SDS011;37243;49.814;8.652;2022-12-07T10:13:45;1.75;;;1.65;;
51179;SDS011;37243;49.814;8.652;2022-12-07T10:16:35;1.70;;;1.60;;
51179;SDS011;37243;49.814;8.652;2022-12-07T10:19:19;1.60;;;1.60;;
51179;SDS011;37243;49.814;8.652;2022-12-07T10:22:00;1.23;;;1.23;;
51179;SDS011;37243;49.814;8.652;2022-12-07T10:24:33;1.95;;;1.85;;
51179;SDS011;37243;49.814;8.652;2022-12-07T10:27:02;1.40;;;1.40;;
51179;SDS011;37243;49.814;8.652;2022-12-07T10:29:31;1.73;;;1.63;;
51179;SDS011;37243;49.814;8.652;2022-12-07T10:32:06;1.45;;;1.42;;
51179;SDS011;37243;49.814;8.652;2022-12-07T10:35:15;2.30;;;1.58;;
51179;SDS011;37243;49.814;8.652;2022-12-07T10:37:51;1.70;;;1.60;;
51179;SDS011;37243;49.814;8.652;2022-12-07T10:40:25;1.60;;;1.60;;
51179;SDS011;37243;49.814;8.652;2022-12-07T10:43:03;1.50;;;1.50;;
51179;SDS011;37243;49.814;8.652;2022-12-07T10:45:34;1.63;;;1.52;;
51179;SDS011;37243;49.814;8.652;2022-12-07T10:48:07;1.90;;;1.80;;
51179;SDS011;37243;49.814;8.652;2022-12-07T10:50:47;1.80;;;1.70;;
51179;SDS011;37243;49.814;8.652;2022-12-07T10:59:24;1.60;;;1.50;;
51179;SDS011;37243;49.814;8.652;2022-12-07T11:02:15;1.33;;;1.30;;
51179;SDS011;37243;49.814;8.652;2022-12-07T11:04:58;1.65;;;1.55;;
51179;SDS011;37243;49.814;8.652;2022-12-07T11:07:37;1.60;;;1.50;;
51179;SDS011;37243;49.814;8.652;2022-12-07T11:10:14;1.50;;;1.40;;
51179;SDS011;37243;49.814;8.652;2022-12-07T11:12:56;1.60;;;1.50;;
51179;SDS011;37243;49.814;8.652;2022-12-07T11:15:33;1.55;;;1.45;;
51179;SDS011;37243;49.814;8.652;2022-12-07T11:18:11;1.70;;;1.60;;
51179;SDS011;37243;49.814;8.652;2022-12-07T11:20:52;1.55;;;1.45;;
51179;SDS011;37243;49.814;8.652;2022-12-07T11:23:25;1.65;;;1.55;;
51179;SDS011;37243;49.814;8.652;2022-12-07T11:26:09;1.70;;;1.60;;
51179;SDS011;37243;49.814;8.652;2022-12-07T11:28:53;1.55;;;1.45;;
51179;SDS011;37243;49.814;8.652;2022-12-07T11:31:44;1.35;;;1.27;;
51179;SDS011;37243;49.814;8.652;2022-12-07T11:34:24;1.40;;;1.40;;
51179;SDS011;37243;49.814;8.652;2022-12-07T11:37:06;1.30;;;1.30;;
51179;SDS011;37243;49.814;8.652;2022-12-07T11:39:40;1.52;;;1.40;;
51179;SDS011;37243;49.814;8.652;2022-12-07T11:42:14;1.50;;;1.50;;
51179;SDS011;37243;49.814;8.652;2022-12-07T11:44:49;1.65;;;1.55;;
51179;SDS011;37243;49.814;8.652;2022-12-07T11:47:22;1.35;;;1.35;;
51179;SDS011;37243;49.814;8.652;2022-12-07T11:49:57;1.63;;;1.52;;
51179;SDS011;37243;49.814;8.652;2022-12-07T11:52:39;1.40;;;1.30;;
51179;SDS011;37243;49.814;8.652;2022-12-07T11:55:16;1.52;;;1.52;;
51179;SDS011;37243;49.814;8.652;2022-12-07T11:57:50;1.23;;;1.23;;
51179;SDS011;37243;49.814;8.652;2022-12-07T12:00:22;1.38;;;1.38;;
51179;SDS011;37243;49.814;8.652;2022-12-07T12:02:52;1.60;;;1.50;;
51179;SDS011;37243;49.814;8.652;2022-12-07T12:05:27;1.60;;;1.52;;
51179;SDS011;37243;49.814;8.652;2022-12-07T12:08:01;1.35;;;1.35;;
51179;SDS011;37243;49.814;8.652;2022-12-07T12:10:42;1.40;;;1.40;;
51179;SDS011;37243;49.814;8.652;2022-12-07T12:13:25;1.35;;;1.35;;
51179;SDS011;37243;49.814;8.652;2022-12-07T12:16:19;1.23;;;1.23;;
51179;SDS011;37243;49.814;8.652;2022-12-07T12:19:11;1.48;;;1.48;;
51179;SDS011;37243;49.814;8.652;2022-12-07T12:21:53;1.70;;;1.65;;
51179;SDS011;37243;49.814;8.652;2022-12-07T12:24:28;1.50;;;1.45;;
51179;SDS011;37243;49.814;8.652;2022-12-07T12:27:02;1.42;;;1.40;;
51179;SDS011;37243;49.814;8.652;2022-12-07T12:29:33;1.67;;;1.58;;
51179;SDS011;37243;49.814;8.652;2022-12-07T12:32:07;1.40;;;1.40;;
51179;SDS011;37243;49.814;8.652;2022-12-07T12:34:57;1.45;;;1.45;;
51179;SDS011;37243;49.814;8.652;2022-12-07T12:37:38;1.13;;;1.13;;
51179;SDS011;37243;49.814;8.652;2022-12-07T12:55:41;1.30;;;1.30;;
51179;SDS011;37243;49.814;8.652;2022-12-07T12:58:30;1.30;;;1.30;;
51179;SDS011;37243;49.814;8.652;2022-12-07T13:04:13;1.40;;;1.40;;
51179;SDS011;37243;49.814;8.652;2022-12-07T13:06:51;1.38;;;1.27;;
51179;SDS011;37243;49.814;8.652;2022-12-07T13:09:24;1.38;;;1.38;;
51179;SDS011;37243;49.814;8.652;2022-12-07T13:11:58;1.23;;;1.23;;
51179;SDS011;37243;49.814;8.652;2022-12-07T13:20:43;1.20;;;1.20;;
51179;SDS011;37243;49.814;8.652;2022-12-07T13:23:20;1.33;;;1.33;;
51179;SDS011;37243;49.814;8.652;2022-12-07T13:25:54;1.63;;;1.60;;
51179;SDS011;37243;49.814;8.652;2022-12-07T13:28:32;1.42;;;1.33;;
51179;SDS011;37243;49.814;8.652;2022-12-07T13:31:14;1.50;;;1.50;;
51179;SDS011;37243;49.814;8.652;2022-12-07T13:34:00;1.20;;;1.20;;
51179;SDS011;37243;49.814;8.652;2022-12-07T13:36:30;1.50;;;1.40;;
51179;SDS011;37243;49.814;8.652;2022-12-07T13:39:10;1.10;;;1.10;;
51179;SDS011;37243;49.814;8.652;2022-12-07T13:41:48;1.20;;;1.20;;
51179;SDS011;37243;49.814;8.652;2022-12-07T13:44:18;1.30;;;1.20;;
51179;SDS011;37243;49.814;8.652;2022-12-07T13:46:50;1.38;;;1.30;;
51179;SDS011;37243;49.814;8.652;2022-12-07T13:49:24;1.90;;;1.38;;
51179;SDS011;37243;49.814;8.652;2022-12-07T13:51:54;3.78;;;1.33;;
51179;SDS011;37243;49.814;8.652;2022-12-07T13:54:42;1.60;;;1.50;;
51179;SDS011;37243;49.814;8.652;2022-12-07T13:57:14;1.55;;;1.40;;
51179;SDS011;37243;49.814;8.652;2022-12-07T13:59:43;2.08;;;1.23;;
51179;SDS011;37243;49.814;8.652;2022-12-07T14:02:17;2.30;;;1.38;;
51179;SDS011;37243;49.814;8.652;2022-12-07T14:04:48;4.05;;;1.55;;
51179;SDS011;37243;49.814;8.652;2022-12-07T14:07:20;1.50;;;1.40;;
51179;SDS011;37243;49.814;8.652;2022-12-07T14:09:53;1.88;;;1.45;;
51179;SDS011;37243;49.814;8.652;2022-12-07T14:12:27;1.75;;;1.40;;
51179;SDS011;37243;49.814;8.652;2022-12-07T14:14:56;6.32;;;1.88;;
51179;SDS011;37243;49.814;8.652;2022-12-07T14:17:26;4.88;;;1.73;;
51179;SDS011;37243;49.814;8.652;2022-12-07T14:19:57;4.22;;;2.15;;
51179;SDS011;37243;49.814;8.652;2022-12-07T14:22:28;4.40;;;2.20;;
51179;SDS011;37243;49.814;8.652;2022-12-07T14:24:58;1.95;;;1.48;;
51179;SDS011;37243;49.814;8.652;2022-12-07T14:27:33;3.97;;;1.70;;
51179;SDS011;37243;49.814;8.652;2022-12-07T14:30:02;3.50;;;1.60;;
51179;SDS011;37243;49.814;8.652;2022-12-07T14:32:31;4.18;;;1.70;;
51179;SDS011;37243;49.814;8.652;2022-12-07T14:35:03;2.03;;;1.50;;
51179;SDS011;37243;49.814;8.652;2022-12-07T14:37:38;3.70;;;1.83;;
51179;SDS011;37243;49.814;8.652;2022-12-07T14:40:12;1.77;;;1.58;;
51179;SDS011;37243;49.814;8.652;2022-12-07T14:42:44;2.25;;;1.33;;
51179;SDS011;37243;49.814;8.652;2022-12-07T14:45:15;3.70;;;1.75;;
51179;SDS011;37243;49.814;8.652;2022-12-07T14:47:45;2.75;;;1.50;;
51179;SDS011;37243;49.814;8.652;2022-12-07T14:50:15;3.35;;;1.20;;
51179;SDS011;37243;49.814;8.652;2022-12-07T14:52:46;2.30;;;1.30;;
51179;SDS011;37243;49.814;8.652;2022-12-07T14:55:19;1.55;;;1.20;;
51179;SDS011;37243;49.814;8.652;2022-12-07T14:57:54;2.63;;;1.38;;
51179;SDS011;37243;49.814;8.652;2022-12-07T15:00:23;1.67;;;1.17;;
51179;SDS011;37243;49.814;8.652;2022-12-07T15:02:53;1.30;;;1.20;;
51179;SDS011;37243;49.814;8.652;2022-12-07T15:05:21;2.97;;;1.60;;
51179;SDS011;37243;49.814;8.652;2022-12-07T15:07:50;2.28;;;1.40;;
51179;SDS011;37243;49.814;8.652;2022-12-07T15:10:20;2.33;;;1.40;;
51179;SDS011;37243;49.814;8.652;2022-12-07T15:12:57;2.08;;;1.40;;
51179;SDS011;37243;49.814;8.652;2022-12-07T15:15:46;2.58;;;1.48;;
51179;SDS011;37243;49.814;8.652;2022-12-07T15:18:15;1.40;;;1.20;;
51179;SDS011;37243;49.814;8.652;2022-12-07T15:20:44;1.15;;;1.15;;
51179;SDS011;37243;49.814;8.652;2022-12-07T15:23:13;1.63;;;1.10;;
51179;SDS011;37243;49.814;8.652;2022-12-07T15:25:42;1.65;;;1.13;;
51179;SDS011;37243;49.814;8.652;2022-12-07T15:28:14;1.70;;;1.35;;
51179;SDS011;37243;49.814;8.652;2022-12-07T15:30:43;1.30;;;1.20;;
51179;SDS011;37243;49.814;8.652;2022-12-07T15:33:12;1.52;;;1.08;;
51179;SDS011;37243;49.814;8.652;2022-12-07T15:35:41;2.60;;;1.58;;
51179;SDS011;37243;49.814;8.652;2022-12-07T15:38:10;1.83;;;1.40;;
51179;SDS011;37243;49.814;8.652;2022-12-07T15:40:38;2.30;;;1.17;;
51179;SDS011;37243;49.814;8.652;2022-12-07T15:43:08;0.90;;;0.90;;
51179;SDS011;37243;49.814;8.652;2022-12-07T15:45:59;1.13;;;0.95;;
51179;SDS011;37243;49.814;8.652;2022-12-07T15:48:25;2.95;;;1.48;;
51179;SDS011;37243;49.814;8.652;2022-12-07T15:50:53;1.75;;;1.05;;